sensor_id;sensor_type;location;lat;lon;timestamp;P1;durP1;ratioP1;P2;durP2;ratioP2
69083;SDS011;56185;48.526;9.044;2023-06-14T00:00:24;4.70;;;3.43;;
69083;SDS011;56185;48.526;9.044;2023-06-14T00:02:49;6.47;;;3.40;;
69083;SDS011;56185;48.526;9.044;2023-06-14T00:05:14;6.03;;;3.27;;
69083;SDS011;56185;48.526;9.044;2023-06-14T00:07:40;4.80;;;3.15;;
69083;SDS011;56185;48.526;9.044;2023-06-14T00:10:07;5.10;;;3.35;;
69083;SDS011;56185;48.526;9.044;2023-06-14T00:12:32;4.63;;;3.25;;
69083;SDS011;56185;48.526;9.044;2023-06-14T00:14:58;6.60;;;3.47;;
69083;SDS011;56185;48.526;9.044;2023-06-14T00:17:23;5.35;;;3.30;;
69083;SDS011;56185;48.526;9.044;2023-06-14T00:19:48;7.03;;;3.57;;
69083;SDS011;56185;48.526;9.044;2023-06-14T00:22:14;7.50;;;3.50;;
69083;SDS011;56185;48.526;9.044;2023-06-14T00:24:39;4.97;;;3.35;;
69083;SDS011;56185;48.526;9.044;2023-06-14T00:27:04;5.50;;;3.57;;
69083;SDS011;56185;48.526;9.044;2023-06-14T00:29:30;5.72;;;3.65;;
69083;SDS011;56185;48.526;9.044;2023-06-14T00:31:55;4.93;;;3.50;;
69083;SDS011;56185;48.526;9.044;2023-06-14T00:34:20;6.10;;;3.57;;
69083;SDS011;56185;48.526;9.044;2023-06-14T00:36:45;5.73;;;3.70;;
69083;SDS011;56185;48.526;9.044;2023-06-14T00:39:11;5.28;;;3.47;;
69083;SDS011;56185;48.526;9.044;2023-06-14T00:41:36;5.97;;;3.40;;
69083;SDS011;56185;48.526;9.044;2023-06-14T00:44:01;6.00;;;3.60;;
69083;SDS011;56185;48.526;9.044;2023-06-14T00:46:27;5.70;;;3.50;;
69083;SDS011;56185;48.526;9.044;2023-06-14T00:48:52;5.53;;;3.40;;
69083;SDS011;56185;48.526;9.044;2023-06-14T00:51:18;10.80;;;3.97;;
69083;SDS011;56185;48.526;9.044;2023-06-14T00:53:44;9.27;;;3.65;;
69083;SDS011;56185;48.526;9.044;2023-06-14T00:56:09;6.88;;;3.42;;
69083;SDS011;56185;48.526;9.044;2023-06-14T00:58:34;5.03;;;3.60;;
69083;SDS011;56185;48.526;9.044;2023-06-14T01:00:59;6.97;;;3.80;;
69083;SDS011;56185;48.526;9.044;2023-06-14T01:03:25;6.77;;;3.60;;
69083;SDS011;56185;48.526;9.044;2023-06-14T01:05:56;5.18;;;3.53;;
69083;SDS011;56185;48.526;9.044;2023-06-14T01:08:31;6.60;;;3.78;;
69083;SDS011;56185;48.526;9.044;2023-06-14T01:11:10;4.82;;;3.75;;
69083;SDS011;56185;48.526;9.044;2023-06-14T01:13:43;5.22;;;3.92;;
69083;SDS011;56185;48.526;9.044;2023-06-14T01:16:10;7.75;;;3.90;;
69083;SDS011;56185;48.526;9.044;2023-06-14T01:18:36;5.32;;;3.65;;
69083;SDS011;56185;48.526;9.044;2023-06-14T01:21:02;5.93;;;4.18;;
69083;SDS011;56185;48.526;9.044;2023-06-14T01:23:28;6.03;;;3.70;;
69083;SDS011;56185;48.526;9.044;2023-06-14T01:25:53;5.33;;;3.60;;
69083;SDS011;56185;48.526;9.044;2023-06-14T01:28:20;6.00;;;3.60;;
69083;SDS011;56185;48.526;9.044;2023-06-14T01:30:47;5.85;;;3.53;;
69083;SDS011;56185;48.526;9.044;2023-06-14T01:33:20;5.70;;;3.60;;
69083;SDS011;56185;48.526;9.044;2023-06-14T01:35:47;5.75;;;3.80;;
69083;SDS011;56185;48.526;9.044;2023-06-14T01:38:15;5.25;;;3.80;;
69083;SDS011;56185;48.526;9.044;2023-06-14T01:40:42;5.68;;;3.72;;
69083;SDS011;56185;48.526;9.044;2023-06-14T01:43:09;6.20;;;3.53;;
69083;SDS011;56185;48.526;9.044;2023-06-14T01:45:35;5.07;;;3.75;;
69083;SDS011;56185;48.526;9.044;2023-06-14T01:48:02;8.52;;;3.95;;
69083;SDS011;56185;48.526;9.044;2023-06-14T01:50:28;4.82;;;3.33;;
69083;SDS011;56185;48.526;9.044;2023-06-14T01:52:55;4.53;;;3.53;;
69083;SDS011;56185;48.526;9.044;2023-06-14T01:55:20;5.93;;;3.60;;
69083;SDS011;56185;48.526;9.044;2023-06-14T01:57:45;5.50;;;3.55;;
69083;SDS011;56185;48.526;9.044;2023-06-14T02:00:11;6.67;;;3.70;;
69083;SDS011;56185;48.526;9.044;2023-06-14T02:02:37;4.57;;;3.55;;
69083;SDS011;56185;48.526;9.044;2023-06-14T02:05:02;5.90;;;3.70;;
69083;SDS011;56185;48.526;9.044;2023-06-14T02:07:27;5.53;;;3.83;;
69083;SDS011;56185;48.526;9.044;2023-06-14T02:09:53;5.13;;;3.50;;
69083;SDS011;56185;48.526;9.044;2023-06-14T02:12:18;5.32;;;3.30;;
69083;SDS011;56185;48.526;9.044;2023-06-14T02:14:43;7.40;;;3.40;;
69083;SDS011;56185;48.526;9.044;2023-06-14T02:17:08;5.50;;;3.80;;
69083;SDS011;56185;48.526;9.044;2023-06-14T02:19:34;4.33;;;3.50;;
69083;SDS011;56185;48.526;9.044;2023-06-14T02:21:59;8.10;;;3.60;;
69083;SDS011;56185;48.526;9.044;2023-06-14T02:24:24;5.32;;;3.97;;
69083;SDS011;56185;48.526;9.044;2023-06-14T02:26:49;5.57;;;4.27;;
69083;SDS011;56185;48.526;9.044;2023-06-14T02:29:15;4.20;;;3.50;;
69083;SDS011;56185;48.526;9.044;2023-06-14T02:31:40;4.87;;;3.63;;
69083;SDS011;56185;48.526;9.044;2023-06-14T02:34:06;7.03;;;3.80;;
69083;SDS011;56185;48.526;9.044;2023-06-14T02:36:31;5.65;;;3.60;;
69083;SDS011;56185;48.526;9.044;2023-06-14T02:38:56;9.67;;;4.33;;
69083;SDS011;56185;48.526;9.044;2023-06-14T02:41:22;6.65;;;3.60;;
69083;SDS011;56185;48.526;9.044;2023-06-14T02:43:47;4.90;;;3.53;;
69083;SDS011;56185;48.526;9.044;2023-06-14T02:46:12;5.40;;;4.03;;
69083;SDS011;56185;48.526;9.044;2023-06-14T02:48:37;4.37;;;3.60;;
69083;SDS011;56185;48.526;9.044;2023-06-14T02:51:03;5.73;;;3.77;;
69083;SDS011;56185;48.526;9.044;2023-06-14T02:53:28;4.68;;;3.70;;
69083;SDS011;56185;48.526;9.044;2023-06-14T02:55:53;5.10;;;4.00;;
69083;SDS011;56185;48.526;9.044;2023-06-14T02:58:18;5.82;;;3.72;;
69083;SDS011;56185;48.526;9.044;2023-06-14T03:00:44;8.27;;;3.97;;
69083;SDS011;56185;48.526;9.044;2023-06-14T03:03:09;7.13;;;3.73;;
69083;SDS011;56185;48.526;9.044;2023-06-14T03:05:34;5.63;;;3.90;;
69083;SDS011;56185;48.526;9.044;2023-06-14T03:07:59;5.07;;;3.70;;
69083;SDS011;56185;48.526;9.044;2023-06-14T03:10:25;7.80;;;4.00;;
69083;SDS011;56185;48.526;9.044;2023-06-14T03:12:50;5.67;;;4.20;;
69083;SDS011;56185;48.526;9.044;2023-06-14T03:15:16;6.50;;;3.90;;
69083;SDS011;56185;48.526;9.044;2023-06-14T03:17:41;7.43;;;3.90;;
69083;SDS011;56185;48.526;9.044;2023-06-14T03:20:07;7.45;;;3.85;;
69083;SDS011;56185;48.526;9.044;2023-06-14T03:22:32;7.25;;;3.90;;
69083;SDS011;56185;48.526;9.044;2023-06-14T03:24:58;6.63;;;4.23;;
69083;SDS011;56185;48.526;9.044;2023-06-14T03:27:23;4.60;;;3.47;;
69083;SDS011;56185;48.526;9.044;2023-06-14T03:29:48;5.43;;;3.70;;
69083;SDS011;56185;48.526;9.044;2023-06-14T03:32:13;6.53;;;3.80;;
69083;SDS011;56185;48.526;9.044;2023-06-14T03:34:39;5.43;;;4.00;;
69083;SDS011;56185;48.526;9.044;2023-06-14T03:37:04;7.30;;;4.17;;
69083;SDS011;56185;48.526;9.044;2023-06-14T03:39:30;7.50;;;4.35;;
69083;SDS011;56185;48.526;9.044;2023-06-14T03:41:55;4.83;;;3.80;;
69083;SDS011;56185;48.526;9.044;2023-06-14T03:44:20;5.47;;;4.00;;
69083;SDS011;56185;48.526;9.044;2023-06-14T03:46:47;5.45;;;4.00;;
69083;SDS011;56185;48.526;9.044;2023-06-14T03:49:12;5.20;;;4.20;;
69083;SDS011;56185;48.526;9.044;2023-06-14T03:51:38;5.90;;;4.15;;
69083;SDS011;56185;48.526;9.044;2023-06-14T03:54:04;5.63;;;3.60;;
69083;SDS011;56185;48.526;9.044;2023-06-14T03:56:29;5.38;;;3.80;;
69083;SDS011;56185;48.526;9.044;2023-06-14T03:58:54;7.15;;;4.05;;
69083;SDS011;56185;48.526;9.044;2023-06-14T04:01:19;5.93;;;3.60;;
69083;SDS011;56185;48.526;9.044;2023-06-14T04:03:45;8.00;;;4.40;;
69083;SDS011;56185;48.526;9.044;2023-06-14T04:06:10;4.82;;;3.60;;
69083;SDS011;56185;48.526;9.044;2023-06-14T04:08:35;5.30;;;3.73;;
69083;SDS011;56185;48.526;9.044;2023-06-14T04:11:01;6.00;;;4.20;;
69083;SDS011;56185;48.526;9.044;2023-06-14T04:13:26;6.32;;;3.90;;
69083;SDS011;56185;48.526;9.044;2023-06-14T04:15:52;6.10;;;3.85;;
69083;SDS011;56185;48.526;9.044;2023-06-14T04:18:17;9.25;;;4.43;;
69083;SDS011;56185;48.526;9.044;2023-06-14T04:20:42;5.73;;;3.83;;
69083;SDS011;56185;48.526;9.044;2023-06-14T04:23:14;7.82;;;4.20;;
69083;SDS011;56185;48.526;9.044;2023-06-14T04:25:39;7.10;;;3.72;;
69083;SDS011;56185;48.526;9.044;2023-06-14T04:28:05;7.47;;;4.18;;
69083;SDS011;56185;48.526;9.044;2023-06-14T04:30:30;7.25;;;4.25;;
69083;SDS011;56185;48.526;9.044;2023-06-14T04:32:55;7.47;;;3.90;;
69083;SDS011;56185;48.526;9.044;2023-06-14T04:35:20;5.65;;;4.13;;
69083;SDS011;56185;48.526;9.044;2023-06-14T04:37:46;5.50;;;4.03;;
69083;SDS011;56185;48.526;9.044;2023-06-14T04:40:11;9.50;;;4.13;;
69083;SDS011;56185;48.526;9.044;2023-06-14T04:42:36;6.20;;;3.92;;
69083;SDS011;56185;48.526;9.044;2023-06-14T04:45:01;9.27;;;4.60;;
69083;SDS011;56185;48.526;9.044;2023-06-14T04:47:27;6.13;;;3.80;;
69083;SDS011;56185;48.526;9.044;2023-06-14T04:49:53;7.27;;;4.40;;
69083;SDS011;56185;48.526;9.044;2023-06-14T04:52:19;9.07;;;4.60;;
69083;SDS011;56185;48.526;9.044;2023-06-14T04:54:44;6.65;;;4.03;;
69083;SDS011;56185;48.526;9.044;2023-06-14T04:57:09;5.30;;;3.90;;
69083;SDS011;56185;48.526;9.044;2023-06-14T04:59:35;6.57;;;4.05;;
69083;SDS011;56185;48.526;9.044;2023-06-14T05:02:00;7.43;;;4.40;;
69083;SDS011;56185;48.526;9.044;2023-06-14T05:04:26;7.88;;;4.38;;
69083;SDS011;56185;48.526;9.044;2023-06-14T05:06:51;6.07;;;4.10;;
69083;SDS011;56185;48.526;9.044;2023-06-14T05:09:17;7.35;;;4.20;;
69083;SDS011;56185;48.526;9.044;2023-06-14T05:11:42;5.70;;;4.03;;
69083;SDS011;56185;48.526;9.044;2023-06-14T05:14:07;9.30;;;4.47;;
69083;SDS011;56185;48.526;9.044;2023-06-14T05:16:33;7.82;;;4.82;;
69083;SDS011;56185;48.526;9.044;2023-06-14T05:18:58;9.48;;;4.68;;
69083;SDS011;56185;48.526;9.044;2023-06-14T05:21:23;7.90;;;4.67;;
69083;SDS011;56185;48.526;9.044;2023-06-14T05:23:49;6.22;;;4.47;;
69083;SDS011;56185;48.526;9.044;2023-06-14T05:26:15;9.65;;;4.15;;
69083;SDS011;56185;48.526;9.044;2023-06-14T05:28:40;6.37;;;4.30;;
69083;SDS011;56185;48.526;9.044;2023-06-14T05:31:05;6.10;;;4.28;;
69083;SDS011;56185;48.526;9.044;2023-06-14T05:33:30;8.23;;;4.40;;
69083;SDS011;56185;48.526;9.044;2023-06-14T05:35:55;7.10;;;4.60;;
69083;SDS011;56185;48.526;9.044;2023-06-14T05:38:21;8.33;;;4.53;;
69083;SDS011;56185;48.526;9.044;2023-06-14T05:40:46;8.50;;;4.60;;
69083;SDS011;56185;48.526;9.044;2023-06-14T05:43:12;8.07;;;4.88;;
69083;SDS011;56185;48.526;9.044;2023-06-14T05:45:38;6.40;;;4.57;;
69083;SDS011;56185;48.526;9.044;2023-06-14T05:48:03;9.50;;;4.90;;
69083;SDS011;56185;48.526;9.044;2023-06-14T05:50:29;6.00;;;4.50;;
69083;SDS011;56185;48.526;9.044;2023-06-14T05:52:55;5.80;;;4.40;;
69083;SDS011;56185;48.526;9.044;2023-06-14T05:55:20;8.07;;;4.93;;
69083;SDS011;56185;48.526;9.044;2023-06-14T05:57:46;7.57;;;4.85;;
69083;SDS011;56185;48.526;9.044;2023-06-14T06:00:11;5.90;;;4.47;;
69083;SDS011;56185;48.526;9.044;2023-06-14T06:02:37;7.80;;;4.50;;
69083;SDS011;56185;48.526;9.044;2023-06-14T06:05:02;8.50;;;4.67;;
69083;SDS011;56185;48.526;9.044;2023-06-14T06:07:27;8.38;;;4.82;;
69083;SDS011;56185;48.526;9.044;2023-06-14T06:09:53;6.95;;;4.75;;
69083;SDS011;56185;48.526;9.044;2023-06-14T06:12:18;10.83;;;5.13;;
69083;SDS011;56185;48.526;9.044;2023-06-14T06:14:43;7.77;;;4.60;;
69083;SDS011;56185;48.526;9.044;2023-06-14T06:17:08;5.85;;;4.57;;
69083;SDS011;56185;48.526;9.044;2023-06-14T06:19:34;6.53;;;4.70;;
69083;SDS011;56185;48.526;9.044;2023-06-14T06:21:59;6.00;;;4.77;;
69083;SDS011;56185;48.526;9.044;2023-06-14T06:24:24;7.60;;;4.70;;
69083;SDS011;56185;48.526;9.044;2023-06-14T06:26:49;9.52;;;5.07;;
69083;SDS011;56185;48.526;9.044;2023-06-14T06:29:15;6.73;;;4.70;;
69083;SDS011;56185;48.526;9.044;2023-06-14T06:31:40;7.10;;;4.90;;
69083;SDS011;56185;48.526;9.044;2023-06-14T06:34:05;7.63;;;4.97;;
69083;SDS011;56185;48.526;9.044;2023-06-14T06:36:30;7.87;;;4.90;;
69083;SDS011;56185;48.526;9.044;2023-06-14T06:38:55;7.17;;;5.10;;
69083;SDS011;56185;48.526;9.044;2023-06-14T06:41:21;9.17;;;5.00;;
69083;SDS011;56185;48.526;9.044;2023-06-14T06:43:46;9.33;;;5.13;;
69083;SDS011;56185;48.526;9.044;2023-06-14T06:46:11;10.13;;;4.60;;
69083;SDS011;56185;48.526;9.044;2023-06-14T06:48:36;6.73;;;4.67;;
69083;SDS011;56185;48.526;9.044;2023-06-14T06:51:02;7.33;;;4.60;;
69083;SDS011;56185;48.526;9.044;2023-06-14T06:53:27;9.07;;;4.97;;
69083;SDS011;56185;48.526;9.044;2023-06-14T06:55:52;7.00;;;4.47;;
69083;SDS011;56185;48.526;9.044;2023-06-14T06:58:17;6.87;;;4.73;;
69083;SDS011;56185;48.526;9.044;2023-06-14T07:00:43;8.07;;;4.93;;
69083;SDS011;56185;48.526;9.044;2023-06-14T07:03:08;6.93;;;4.90;;
69083;SDS011;56185;48.526;9.044;2023-06-14T07:05:33;6.30;;;4.77;;
69083;SDS011;56185;48.526;9.044;2023-06-14T07:07:58;5.80;;;4.57;;
69083;SDS011;56185;48.526;9.044;2023-06-14T07:10:24;6.43;;;4.60;;
69083;SDS011;56185;48.526;9.044;2023-06-14T07:12:49;11.48;;;4.90;;
69083;SDS011;56185;48.526;9.044;2023-06-14T07:15:15;7.90;;;4.82;;
69083;SDS011;56185;48.526;9.044;2023-06-14T07:17:40;8.90;;;4.77;;
69083;SDS011;56185;48.526;9.044;2023-06-14T07:20:06;13.00;;;4.60;;
69083;SDS011;56185;48.526;9.044;2023-06-14T07:22:31;8.32;;;4.47;;
69083;SDS011;56185;48.526;9.044;2023-06-14T07:24:56;7.27;;;4.50;;
69083;SDS011;56185;48.526;9.044;2023-06-14T07:27:22;7.60;;;4.90;;
69083;SDS011;56185;48.526;9.044;2023-06-14T07:29:47;9.20;;;4.30;;
69083;SDS011;56185;48.526;9.044;2023-06-14T07:32:12;5.97;;;4.40;;
69083;SDS011;56185;48.526;9.044;2023-06-14T07:34:37;7.77;;;4.63;;
69083;SDS011;56185;48.526;9.044;2023-06-14T07:37:03;7.30;;;4.40;;
69083;SDS011;56185;48.526;9.044;2023-06-14T07:39:28;7.55;;;4.60;;
69083;SDS011;56185;48.526;9.044;2023-06-14T07:41:53;6.85;;;4.43;;
69083;SDS011;56185;48.526;9.044;2023-06-14T07:44:19;6.13;;;3.90;;
69083;SDS011;56185;48.526;9.044;2023-06-14T07:46:44;7.83;;;3.77;;
69083;SDS011;56185;48.526;9.044;2023-06-14T07:49:09;6.53;;;4.20;;
69083;SDS011;56185;48.526;9.044;2023-06-14T07:51:34;6.53;;;4.03;;
69083;SDS011;56185;48.526;9.044;2023-06-14T07:54:00;7.97;;;4.60;;
69083;SDS011;56185;48.526;9.044;2023-06-14T07:56:25;7.65;;;4.07;;
69083;SDS011;56185;48.526;9.044;2023-06-14T07:58:50;5.97;;;3.97;;
69083;SDS011;56185;48.526;9.044;2023-06-14T08:01:15;5.93;;;3.77;;
69083;SDS011;56185;48.526;9.044;2023-06-14T08:03:41;7.13;;;3.97;;
69083;SDS011;56185;48.526;9.044;2023-06-14T08:06:06;7.20;;;4.10;;
69083;SDS011;56185;48.526;9.044;2023-06-14T08:08:32;4.72;;;3.67;;
69083;SDS011;56185;48.526;9.044;2023-06-14T08:10:57;7.22;;;4.03;;
69083;SDS011;56185;48.526;9.044;2023-06-14T08:13:22;10.67;;;4.20;;
69083;SDS011;56185;48.526;9.044;2023-06-14T08:15:47;5.67;;;3.90;;
69083;SDS011;56185;48.526;9.044;2023-06-14T08:18:13;6.10;;;3.80;;
69083;SDS011;56185;48.526;9.044;2023-06-14T08:20:38;6.37;;;3.57;;
69083;SDS011;56185;48.526;9.044;2023-06-14T08:23:03;4.63;;;3.53;;
69083;SDS011;56185;48.526;9.044;2023-06-14T08:25:29;6.22;;;3.47;;
69083;SDS011;56185;48.526;9.044;2023-06-14T08:27:54;5.95;;;3.75;;
69083;SDS011;56185;48.526;9.044;2023-06-14T08:30:19;5.10;;;3.90;;
69083;SDS011;56185;48.526;9.044;2023-06-14T08:32:45;7.40;;;3.40;;
69083;SDS011;56185;48.526;9.044;2023-06-14T08:35:10;12.30;;;3.40;;
69083;SDS011;56185;48.526;9.044;2023-06-14T08:37:41;4.73;;;3.40;;
69083;SDS011;56185;48.526;9.044;2023-06-14T08:40:12;5.85;;;3.42;;
69083;SDS011;56185;48.526;9.044;2023-06-14T08:42:44;6.90;;;3.10;;
69083;SDS011;56185;48.526;9.044;2023-06-14T08:45:10;7.40;;;3.58;;
69083;SDS011;56185;48.526;9.044;2023-06-14T08:47:37;3.67;;;2.85;;
69083;SDS011;56185;48.526;9.044;2023-06-14T08:50:03;6.78;;;3.28;;
69083;SDS011;56185;48.526;9.044;2023-06-14T08:52:29;6.43;;;3.17;;
69083;SDS011;56185;48.526;9.044;2023-06-14T08:54:59;7.05;;;3.45;;
69083;SDS011;56185;48.526;9.044;2023-06-14T08:57:25;6.63;;;3.30;;
69083;SDS011;56185;48.526;9.044;2023-06-14T08:59:52;8.60;;;3.42;;
69083;SDS011;56185;48.526;9.044;2023-06-14T09:02:18;5.82;;;3.22;;
69083;SDS011;56185;48.526;9.044;2023-06-14T09:04:43;3.80;;;3.20;;
69083;SDS011;56185;48.526;9.044;2023-06-14T09:07:09;9.63;;;3.70;;
69083;SDS011;56185;48.526;9.044;2023-06-14T09:09:37;7.77;;;3.33;;
69083;SDS011;56185;48.526;9.044;2023-06-14T09:12:05;6.40;;;3.53;;
69083;SDS011;56185;48.526;9.044;2023-06-14T09:14:33;5.70;;;3.20;;
69083;SDS011;56185;48.526;9.044;2023-06-14T09:16:58;7.40;;;3.50;;
69083;SDS011;56185;48.526;9.044;2023-06-14T09:19:24;5.43;;;3.33;;
69083;SDS011;56185;48.526;9.044;2023-06-14T09:21:49;7.47;;;3.40;;
69083;SDS011;56185;48.526;9.044;2023-06-14T09:24:15;6.85;;;3.42;;
69083;SDS011;56185;48.526;9.044;2023-06-14T09:26:40;4.50;;;3.50;;
69083;SDS011;56185;48.526;9.044;2023-06-14T09:29:05;4.40;;;2.95;;
69083;SDS011;56185;48.526;9.044;2023-06-14T09:31:31;5.30;;;3.43;;
69083;SDS011;56185;48.526;9.044;2023-06-14T09:33:56;5.22;;;3.10;;
69083;SDS011;56185;48.526;9.044;2023-06-14T09:36:22;7.15;;;3.53;;
69083;SDS011;56185;48.526;9.044;2023-06-14T09:39:06;4.97;;;3.30;;
69083;SDS011;56185;48.526;9.044;2023-06-14T09:41:39;4.65;;;3.53;;
69083;SDS011;56185;48.526;9.044;2023-06-14T09:44:08;6.17;;;3.47;;
69083;SDS011;56185;48.526;9.044;2023-06-14T09:46:35;5.00;;;3.30;;
69083;SDS011;56185;48.526;9.044;2023-06-14T09:49:02;5.43;;;3.33;;
69083;SDS011;56185;48.526;9.044;2023-06-14T09:51:28;5.60;;;3.50;;
69083;SDS011;56185;48.526;9.044;2023-06-14T09:53:55;8.77;;;3.63;;
69083;SDS011;56185;48.526;9.044;2023-06-14T09:56:29;8.25;;;3.28;;
69083;SDS011;56185;48.526;9.044;2023-06-14T09:58:56;6.45;;;3.10;;
69083;SDS011;56185;48.526;9.044;2023-06-14T10:01:23;4.10;;;3.20;;
69083;SDS011;56185;48.526;9.044;2023-06-14T10:03:49;4.72;;;3.30;;
69083;SDS011;56185;48.526;9.044;2023-06-14T10:06:15;4.63;;;3.40;;
69083;SDS011;56185;48.526;9.044;2023-06-14T10:08:41;4.88;;;3.35;;
69083;SDS011;56185;48.526;9.044;2023-06-14T10:11:07;4.63;;;3.42;;
69083;SDS011;56185;48.526;9.044;2023-06-14T10:13:33;5.55;;;3.60;;
69083;SDS011;56185;48.526;9.044;2023-06-14T10:16:42;4.90;;;3.55;;
69083;SDS011;56185;48.526;9.044;2023-06-14T10:19:03;5.10;;;3.08;;
69083;SDS011;56185;48.526;9.044;2023-06-14T10:21:55;4.07;;;3.22;;
69083;SDS011;56185;48.526;9.044;2023-06-14T10:24:28;6.72;;;3.38;;
69083;SDS011;56185;48.526;9.044;2023-06-14T10:26:57;6.60;;;3.22;;
69083;SDS011;56185;48.526;9.044;2023-06-14T10:29:22;4.15;;;3.00;;
69083;SDS011;56185;48.526;9.044;2023-06-14T10:31:49;6.55;;;3.30;;
69083;SDS011;56185;48.526;9.044;2023-06-14T10:34:28;4.60;;;3.15;;
69083;SDS011;56185;48.526;9.044;2023-06-14T10:37:02;6.70;;;3.33;;
69083;SDS011;56185;48.526;9.044;2023-06-14T10:39:40;7.47;;;3.08;;
69083;SDS011;56185;48.526;9.044;2023-06-14T10:42:09;5.25;;;3.10;;
69083;SDS011;56185;48.526;9.044;2023-06-14T10:44:54;9.65;;;3.33;;
69083;SDS011;56185;48.526;9.044;2023-06-14T10:52:40;4.57;;;2.80;;
69083;SDS011;56185;48.526;9.044;2023-06-14T10:57:37;7.80;;;3.13;;
69083;SDS011;56185;48.526;9.044;2023-06-14T11:00:05;4.68;;;3.03;;
69083;SDS011;56185;48.526;9.044;2023-06-14T11:02:39;5.35;;;3.05;;
69083;SDS011;56185;48.526;9.044;2023-06-14T11:05:14;4.47;;;2.90;;
69083;SDS011;56185;48.526;9.044;2023-06-14T11:10:38;5.15;;;3.22;;
69083;SDS011;56185;48.526;9.044;2023-06-14T11:13:06;5.32;;;3.05;;
69083;SDS011;56185;48.526;9.044;2023-06-14T11:15:32;5.05;;;2.95;;
69083;SDS011;56185;48.526;9.044;2023-06-14T11:18:01;6.80;;;2.97;;
69083;SDS011;56185;48.526;9.044;2023-06-14T11:20:29;5.40;;;3.17;;
69083;SDS011;56185;48.526;9.044;2023-06-14T11:22:56;4.70;;;3.33;;
69083;SDS011;56185;48.526;9.044;2023-06-14T11:25:21;4.20;;;3.30;;
69083;SDS011;56185;48.526;9.044;2023-06-14T11:27:48;6.00;;;3.08;;
69083;SDS011;56185;48.526;9.044;2023-06-14T11:30:15;4.45;;;2.83;;
69083;SDS011;56185;48.526;9.044;2023-06-14T11:32:40;4.53;;;2.90;;
69083;SDS011;56185;48.526;9.044;2023-06-14T11:35:05;5.27;;;3.60;;
69083;SDS011;56185;48.526;9.044;2023-06-14T11:37:31;4.55;;;3.03;;
69083;SDS011;56185;48.526;9.044;2023-06-14T11:39:57;6.30;;;2.88;;
69083;SDS011;56185;48.526;9.044;2023-06-14T11:42:22;5.47;;;3.08;;
69083;SDS011;56185;48.526;9.044;2023-06-14T11:45:09;4.40;;;3.15;;
69083;SDS011;56185;48.526;9.044;2023-06-14T11:47:39;5.05;;;3.13;;
69083;SDS011;56185;48.526;9.044;2023-06-14T11:50:06;5.85;;;3.17;;
69083;SDS011;56185;48.526;9.044;2023-06-14T11:52:36;9.18;;;3.38;;
69083;SDS011;56185;48.526;9.044;2023-06-14T11:55:02;4.78;;;3.47;;
69083;SDS011;56185;48.526;9.044;2023-06-14T11:57:27;7.18;;;3.55;;
69083;SDS011;56185;48.526;9.044;2023-06-14T11:59:54;8.43;;;3.27;;
69083;SDS011;56185;48.526;9.044;2023-06-14T12:02:21;5.07;;;2.88;;
69083;SDS011;56185;48.526;9.044;2023-06-14T12:04:47;5.00;;;3.13;;
69083;SDS011;56185;48.526;9.044;2023-06-14T12:07:13;3.63;;;3.08;;
69083;SDS011;56185;48.526;9.044;2023-06-14T12:09:39;7.10;;;3.10;;
69083;SDS011;56185;48.526;9.044;2023-06-14T12:12:05;4.05;;;2.97;;
69083;SDS011;56185;48.526;9.044;2023-06-14T12:14:30;5.13;;;3.17;;
69083;SDS011;56185;48.526;9.044;2023-06-14T12:17:03;8.18;;;3.10;;
69083;SDS011;56185;48.526;9.044;2023-06-14T12:19:31;10.32;;;3.53;;
69083;SDS011;56185;48.526;9.044;2023-06-14T12:21:56;8.45;;;3.50;;
69083;SDS011;56185;48.526;9.044;2023-06-14T12:24:27;8.18;;;3.33;;
69083;SDS011;56185;48.526;9.044;2023-06-14T12:26:53;4.75;;;3.08;;
69083;SDS011;56185;48.526;9.044;2023-06-14T12:29:19;5.73;;;3.13;;
69083;SDS011;56185;48.526;9.044;2023-06-14T12:31:44;6.70;;;3.38;;
69083;SDS011;56185;48.526;9.044;2023-06-14T12:34:09;4.27;;;3.10;;
69083;SDS011;56185;48.526;9.044;2023-06-14T12:36:35;4.90;;;3.20;;
69083;SDS011;56185;48.526;9.044;2023-06-14T12:39:00;4.27;;;2.90;;
69083;SDS011;56185;48.526;9.044;2023-06-14T12:41:25;10.97;;;3.67;;
69083;SDS011;56185;48.526;9.044;2023-06-14T12:43:50;5.27;;;2.93;;
69083;SDS011;56185;48.526;9.044;2023-06-14T12:46:15;4.17;;;2.97;;
69083;SDS011;56185;48.526;9.044;2023-06-14T12:48:41;5.03;;;2.90;;
69083;SDS011;56185;48.526;9.044;2023-06-14T12:51:06;7.73;;;3.17;;
69083;SDS011;56185;48.526;9.044;2023-06-14T12:53:32;7.40;;;3.43;;
69083;SDS011;56185;48.526;9.044;2023-06-14T12:55:57;6.03;;;3.33;;
69083;SDS011;56185;48.526;9.044;2023-06-14T12:58:22;5.80;;;3.40;;
69083;SDS011;56185;48.526;9.044;2023-06-14T13:00:47;4.97;;;3.20;;
69083;SDS011;56185;48.526;9.044;2023-06-14T13:03:13;4.87;;;3.03;;
69083;SDS011;56185;48.526;9.044;2023-06-14T13:05:38;5.50;;;3.50;;
69083;SDS011;56185;48.526;9.044;2023-06-14T13:08:03;4.73;;;3.00;;
69083;SDS011;56185;48.526;9.044;2023-06-14T13:10:28;7.22;;;3.42;;
69083;SDS011;56185;48.526;9.044;2023-06-14T13:12:54;5.87;;;3.40;;
69083;SDS011;56185;48.526;9.044;2023-06-14T13:15:19;3.80;;;3.13;;
69083;SDS011;56185;48.526;9.044;2023-06-14T13:17:44;4.30;;;3.17;;
69083;SDS011;56185;48.526;9.044;2023-06-14T13:20:09;6.83;;;2.90;;
69083;SDS011;56185;48.526;9.044;2023-06-14T13:22:35;8.67;;;3.17;;
69083;SDS011;56185;48.526;9.044;2023-06-14T13:25:00;4.50;;;3.20;;
69083;SDS011;56185;48.526;9.044;2023-06-14T13:27:26;6.45;;;3.10;;
69083;SDS011;56185;48.526;9.044;2023-06-14T13:29:52;4.60;;;3.00;;
69083;SDS011;56185;48.526;9.044;2023-06-14T13:32:20;4.50;;;2.95;;
69083;SDS011;56185;48.526;9.044;2023-06-14T13:34:46;5.25;;;3.20;;
69083;SDS011;56185;48.526;9.044;2023-06-14T13:37:11;4.53;;;3.20;;
69083;SDS011;56185;48.526;9.044;2023-06-14T13:39:36;6.50;;;3.03;;
69083;SDS011;56185;48.526;9.044;2023-06-14T13:42:01;6.13;;;3.00;;
69083;SDS011;56185;48.526;9.044;2023-06-14T13:44:27;4.53;;;3.08;;
69083;SDS011;56185;48.526;9.044;2023-06-14T13:46:52;5.67;;;3.27;;
69083;SDS011;56185;48.526;9.044;2023-06-14T13:49:17;5.23;;;2.93;;
69083;SDS011;56185;48.526;9.044;2023-06-14T13:51:42;5.13;;;3.03;;
69083;SDS011;56185;48.526;9.044;2023-06-14T13:54:08;7.27;;;3.10;;
69083;SDS011;56185;48.526;9.044;2023-06-14T13:56:33;3.83;;;2.80;;
69083;SDS011;56185;48.526;9.044;2023-06-14T13:58:58;5.70;;;3.30;;
69083;SDS011;56185;48.526;9.044;2023-06-14T14:01:23;5.32;;;3.10;;
69083;SDS011;56185;48.526;9.044;2023-06-14T14:03:49;4.10;;;3.10;;
69083;SDS011;56185;48.526;9.044;2023-06-14T14:06:14;4.85;;;3.10;;
69083;SDS011;56185;48.526;9.044;2023-06-14T14:08:43;6.10;;;2.78;;
69083;SDS011;56185;48.526;9.044;2023-06-14T14:11:09;3.45;;;2.83;;
69083;SDS011;56185;48.526;9.044;2023-06-14T14:13:34;4.57;;;3.00;;
69083;SDS011;56185;48.526;9.044;2023-06-14T14:16:00;5.57;;;3.00;;
69083;SDS011;56185;48.526;9.044;2023-06-14T14:18:25;4.50;;;2.90;;
69083;SDS011;56185;48.526;9.044;2023-06-14T14:20:51;4.93;;;3.00;;
69083;SDS011;56185;48.526;9.044;2023-06-14T14:23:17;4.00;;;3.13;;
69083;SDS011;56185;48.526;9.044;2023-06-14T14:25:42;5.73;;;2.80;;
69083;SDS011;56185;48.526;9.044;2023-06-14T14:28:07;4.03;;;3.03;;
69083;SDS011;56185;48.526;9.044;2023-06-14T14:30:32;4.43;;;2.73;;
69083;SDS011;56185;48.526;9.044;2023-06-14T14:32:58;5.60;;;3.00;;
69083;SDS011;56185;48.526;9.044;2023-06-14T14:35:23;4.93;;;3.10;;
69083;SDS011;56185;48.526;9.044;2023-06-14T14:37:48;5.53;;;3.00;;
69083;SDS011;56185;48.526;9.044;2023-06-14T14:40:14;5.77;;;3.10;;
69083;SDS011;56185;48.526;9.044;2023-06-14T14:42:39;7.65;;;3.00;;
69083;SDS011;56185;48.526;9.044;2023-06-14T14:45:05;5.82;;;3.00;;
69083;SDS011;56185;48.526;9.044;2023-06-14T14:47:31;5.63;;;2.90;;
69083;SDS011;56185;48.526;9.044;2023-06-14T14:49:57;5.70;;;3.00;;
69083;SDS011;56185;48.526;9.044;2023-06-14T14:52:22;6.53;;;3.00;;